sensor_id;sensor_type;location;lat;lon;timestamp;P1;durP1;ratioP1;P2;durP2;ratioP2
59062;SDS011;44851;45.648;9.004;2023-05-06T00:01:26;15.43;;;13.90;;
59062;SDS011;44851;45.648;9.004;2023-05-06T00:03:51;16.33;;;14.73;;
59062;SDS011;44851;45.648;9.004;2023-05-06T00:06:16;16.13;;;14.83;;
59062;SDS011;44851;45.648;9.004;2023-05-06T00:08:42;16.30;;;14.90;;
59062;SDS011;44851;45.648;9.004;2023-05-06T00:11:07;15.80;;;14.50;;
59062;SDS011;44851;45.648;9.004;2023-05-06T00:13:32;14.93;;;13.53;;
59062;SDS011;44851;45.648;9.004;2023-05-06T00:15:58;16.87;;;15.27;;
59062;SDS011;44851;45.648;9.004;2023-05-06T00:18:23;15.50;;;14.10;;
59062;SDS011;44851;45.648;9.004;2023-05-06T00:20:48;15.63;;;14.27;;
59062;SDS011;44851;45.648;9.004;2023-05-06T00:23:14;15.53;;;14.03;;
59062;SDS011;44851;45.648;9.004;2023-05-06T00:25:40;15.57;;;14.03;;
59062;SDS011;44851;45.648;9.004;2023-05-06T00:28:05;15.27;;;13.93;;
59062;SDS011;44851;45.648;9.004;2023-05-06T00:30:31;15.17;;;13.87;;
59062;SDS011;44851;45.648;9.004;2023-05-06T00:32:56;15.67;;;14.17;;
59062;SDS011;44851;45.648;9.004;2023-05-06T00:35:22;15.47;;;14.17;;
59062;SDS011;44851;45.648;9.004;2023-05-06T00:37:52;15.50;;;14.10;;
59062;SDS011;44851;45.648;9.004;2023-05-06T00:40:21;15.67;;;14.20;;
59062;SDS011;44851;45.648;9.004;2023-05-06T00:42:47;15.37;;;14.07;;
59062;SDS011;44851;45.648;9.004;2023-05-06T00:45:12;14.80;;;13.40;;
59062;SDS011;44851;45.648;9.004;2023-05-06T00:47:37;15.37;;;14.07;;
59062;SDS011;44851;45.648;9.004;2023-05-06T00:50:03;15.40;;;14.00;;
59062;SDS011;44851;45.648;9.004;2023-05-06T00:52:29;14.63;;;13.23;;
59062;SDS011;44851;45.648;9.004;2023-05-06T00:54:55;15.03;;;13.63;;
59062;SDS011;44851;45.648;9.004;2023-05-06T00:57:21;15.50;;;14.10;;
59062;SDS011;44851;45.648;9.004;2023-05-06T00:59:46;15.00;;;13.70;;
59062;SDS011;44851;45.648;9.004;2023-05-06T01:02:11;14.50;;;13.20;;
59062;SDS011;44851;45.648;9.004;2023-05-06T01:04:37;14.60;;;13.10;;
59062;SDS011;44851;45.648;9.004;2023-05-06T01:07:06;14.70;;;13.30;;
59062;SDS011;44851;45.648;9.004;2023-05-06T01:09:40;14.70;;;13.40;;
59062;SDS011;44851;45.648;9.004;2023-05-06T01:12:15;14.47;;;13.17;;
59062;SDS011;44851;45.648;9.004;2023-05-06T01:14:45;13.73;;;12.53;;
59062;SDS011;44851;45.648;9.004;2023-05-06T01:17:19;14.43;;;13.13;;
59062;SDS011;44851;45.648;9.004;2023-05-06T01:19:52;14.77;;;13.43;;
59062;SDS011;44851;45.648;9.004;2023-05-06T01:22:22;14.67;;;13.13;;
59062;SDS011;44851;45.648;9.004;2023-05-06T01:24:50;14.63;;;13.33;;
59062;SDS011;44851;45.648;9.004;2023-05-06T01:27:15;13.50;;;12.30;;
59062;SDS011;44851;45.648;9.004;2023-05-06T01:29:42;14.93;;;13.57;;
59062;SDS011;44851;45.648;9.004;2023-05-06T01:32:19;15.00;;;13.60;;
59062;SDS011;44851;45.648;9.004;2023-05-06T01:34:59;15.17;;;13.77;;
59062;SDS011;44851;45.648;9.004;2023-05-06T01:40:24;14.23;;;13.03;;
59062;SDS011;44851;45.648;9.004;2023-05-06T01:42:51;14.53;;;13.13;;
59062;SDS011;44851;45.648;9.004;2023-05-06T01:45:17;14.70;;;13.50;;
59062;SDS011;44851;45.648;9.004;2023-05-06T01:47:44;14.47;;;13.17;;
59062;SDS011;44851;45.648;9.004;2023-05-06T01:50:10;14.80;;;13.40;;
59062;SDS011;44851;45.648;9.004;2023-05-06T01:52:36;14.57;;;13.23;;
59062;SDS011;44851;45.648;9.004;2023-05-06T01:55:01;15.23;;;13.83;;
59062;SDS011;44851;45.648;9.004;2023-05-06T01:57:27;15.00;;;13.70;;
59062;SDS011;44851;45.648;9.004;2023-05-06T01:59:52;13.57;;;12.27;;
59062;SDS011;44851;45.648;9.004;2023-05-06T02:02:18;13.70;;;12.60;;
59062;SDS011;44851;45.648;9.004;2023-05-06T02:04:44;12.70;;;11.53;;
59062;SDS011;44851;45.648;9.004;2023-05-06T02:07:09;13.17;;;12.07;;
59062;SDS011;44851;45.648;9.004;2023-05-06T02:09:35;12.63;;;11.43;;
59062;SDS011;44851;45.648;9.004;2023-05-06T02:12:00;13.13;;;11.93;;
59062;SDS011;44851;45.648;9.004;2023-05-06T02:14:25;12.73;;;11.63;;
59062;SDS011;44851;45.648;9.004;2023-05-06T02:16:51;12.87;;;11.77;;
59062;SDS011;44851;45.648;9.004;2023-05-06T02:19:16;12.17;;;11.07;;
59062;SDS011;44851;45.648;9.004;2023-05-06T02:21:41;13.90;;;12.70;;
59062;SDS011;44851;45.648;9.004;2023-05-06T02:24:07;13.80;;;12.60;;
59062;SDS011;44851;45.648;9.004;2023-05-06T02:26:32;13.40;;;12.10;;
59062;SDS011;44851;45.648;9.004;2023-05-06T02:28:57;13.87;;;12.57;;
59062;SDS011;44851;45.648;9.004;2023-05-06T02:31:23;13.80;;;12.50;;
59062;SDS011;44851;45.648;9.004;2023-05-06T02:33:48;13.87;;;12.57;;
59062;SDS011;44851;45.648;9.004;2023-05-06T02:36:13;14.33;;;13.03;;
59062;SDS011;44851;45.648;9.004;2023-05-06T02:38:39;14.23;;;13.00;;
59062;SDS011;44851;45.648;9.004;2023-05-06T02:41:04;13.00;;;11.83;;
59062;SDS011;44851;45.648;9.004;2023-05-06T02:43:30;14.23;;;13.03;;
59062;SDS011;44851;45.648;9.004;2023-05-06T02:45:55;14.03;;;12.80;;
59062;SDS011;44851;45.648;9.004;2023-05-06T02:48:20;14.73;;;13.40;;
59062;SDS011;44851;45.648;9.004;2023-05-06T02:50:46;14.80;;;13.30;;
59062;SDS011;44851;45.648;9.004;2023-05-06T02:53:11;14.90;;;13.63;;
59062;SDS011;44851;45.648;9.004;2023-05-06T02:55:37;15.43;;;13.93;;
59062;SDS011;44851;45.648;9.004;2023-05-06T02:58:02;14.80;;;13.50;;
59062;SDS011;44851;45.648;9.004;2023-05-06T03:00:28;15.13;;;13.73;;
59062;SDS011;44851;45.648;9.004;2023-05-06T03:02:53;15.83;;;14.47;;
59062;SDS011;44851;45.648;9.004;2023-05-06T03:05:19;14.27;;;13.07;;
59062;SDS011;44851;45.648;9.004;2023-05-06T03:07:45;14.57;;;13.27;;
59062;SDS011;44851;45.648;9.004;2023-05-06T03:10:10;15.67;;;14.20;;
59062;SDS011;44851;45.648;9.004;2023-05-06T03:12:36;16.23;;;14.73;;
59062;SDS011;44851;45.648;9.004;2023-05-06T03:15:01;15.53;;;14.13;;
59062;SDS011;44851;45.648;9.004;2023-05-06T03:17:26;15.63;;;14.23;;
59062;SDS011;44851;45.648;9.004;2023-05-06T03:19:52;15.60;;;14.30;;
59062;SDS011;44851;45.648;9.004;2023-05-06T03:22:17;15.80;;;14.47;;
59062;SDS011;44851;45.648;9.004;2023-05-06T03:24:43;15.63;;;14.23;;
59062;SDS011;44851;45.648;9.004;2023-05-06T03:27:08;15.77;;;14.47;;
59062;SDS011;44851;45.648;9.004;2023-05-06T03:29:33;16.23;;;14.73;;
59062;SDS011;44851;45.648;9.004;2023-05-06T03:32:02;16.37;;;14.87;;
59062;SDS011;44851;45.648;9.004;2023-05-06T03:34:28;14.57;;;13.27;;
59062;SDS011;44851;45.648;9.004;2023-05-06T03:36:53;15.33;;;13.83;;
59062;SDS011;44851;45.648;9.004;2023-05-06T03:39:19;15.97;;;14.57;;
59062;SDS011;44851;45.648;9.004;2023-05-06T03:41:44;15.27;;;13.93;;
59062;SDS011;44851;45.648;9.004;2023-05-06T03:44:09;14.90;;;13.63;;
59062;SDS011;44851;45.648;9.004;2023-05-06T03:46:35;15.03;;;13.63;;
59062;SDS011;44851;45.648;9.004;2023-05-06T03:49:00;14.93;;;13.63;;
59062;SDS011;44851;45.648;9.004;2023-05-06T03:51:26;15.77;;;14.27;;
59062;SDS011;44851;45.648;9.004;2023-05-06T03:53:52;15.00;;;13.60;;
59062;SDS011;44851;45.648;9.004;2023-05-06T03:56:18;15.03;;;13.63;;
59062;SDS011;44851;45.648;9.004;2023-05-06T03:58:45;15.30;;;13.87;;
59062;SDS011;44851;45.648;9.004;2023-05-06T04:01:11;16.03;;;14.57;;
59062;SDS011;44851;45.648;9.004;2023-05-06T04:03:36;15.93;;;14.43;;
59062;SDS011;44851;45.648;9.004;2023-05-06T04:06:01;15.77;;;14.30;;
59062;SDS011;44851;45.648;9.004;2023-05-06T04:08:27;16.27;;;14.77;;
59062;SDS011;44851;45.648;9.004;2023-05-06T04:10:53;15.97;;;14.47;;
59062;SDS011;44851;45.648;9.004;2023-05-06T04:13:18;16.30;;;14.70;;
59062;SDS011;44851;45.648;9.004;2023-05-06T04:15:44;18.33;;;16.57;;
59062;SDS011;44851;45.648;9.004;2023-05-06T04:18:09;18.20;;;16.50;;
59062;SDS011;44851;45.648;9.004;2023-05-06T04:20:35;17.73;;;16.00;;
59062;SDS011;44851;45.648;9.004;2023-05-06T04:23:00;19.40;;;17.53;;
59062;SDS011;44851;45.648;9.004;2023-05-06T04:25:26;20.43;;;18.47;;
59062;SDS011;44851;45.648;9.004;2023-05-06T04:27:52;21.37;;;19.23;;
59062;SDS011;44851;45.648;9.004;2023-05-06T04:30:18;21.67;;;19.47;;
59062;SDS011;44851;45.648;9.004;2023-05-06T04:32:44;20.90;;;19.10;;
59062;SDS011;44851;45.648;9.004;2023-05-06T04:35:10;21.50;;;19.60;;
59062;SDS011;44851;45.648;9.004;2023-05-06T04:37:35;20.93;;;19.13;;
59062;SDS011;44851;45.648;9.004;2023-05-06T04:40:01;20.53;;;18.57;;
59062;SDS011;44851;45.648;9.004;2023-05-06T04:42:28;21.07;;;19.17;;
59062;SDS011;44851;45.648;9.004;2023-05-06T04:44:53;21.13;;;19.20;;
59062;SDS011;44851;45.648;9.004;2023-05-06T04:47:19;20.80;;;18.87;;
59062;SDS011;44851;45.648;9.004;2023-05-06T04:49:44;20.50;;;18.60;;
59062;SDS011;44851;45.648;9.004;2023-05-06T04:52:09;20.97;;;18.87;;
59062;SDS011;44851;45.648;9.004;2023-05-06T04:54:35;22.60;;;20.50;;
59062;SDS011;44851;45.648;9.004;2023-05-06T04:57:00;20.80;;;19.00;;
59062;SDS011;44851;45.648;9.004;2023-05-06T04:59:27;20.83;;;18.87;;
59062;SDS011;44851;45.648;9.004;2023-05-06T05:01:52;20.97;;;18.80;;
59062;SDS011;44851;45.648;9.004;2023-05-06T05:04:17;20.10;;;18.40;;
59062;SDS011;44851;45.648;9.004;2023-05-06T05:06:43;20.40;;;18.40;;
59062;SDS011;44851;45.648;9.004;2023-05-06T05:09:08;20.43;;;18.50;;
59062;SDS011;44851;45.648;9.004;2023-05-06T05:11:35;20.73;;;18.73;;
59062;SDS011;44851;45.648;9.004;2023-05-06T05:14:02;20.70;;;18.47;;
59062;SDS011;44851;45.648;9.004;2023-05-06T05:16:27;21.37;;;19.30;;
59062;SDS011;44851;45.648;9.004;2023-05-06T05:18:52;21.10;;;19.20;;
59062;SDS011;44851;45.648;9.004;2023-05-06T05:21:18;21.00;;;19.00;;
59062;SDS011;44851;45.648;9.004;2023-05-06T05:23:44;22.33;;;20.10;;
59062;SDS011;44851;45.648;9.004;2023-05-06T05:26:10;21.83;;;19.80;;
59062;SDS011;44851;45.648;9.004;2023-05-06T05:28:35;22.60;;;20.40;;
59062;SDS011;44851;45.648;9.004;2023-05-06T05:31:01;22.67;;;20.53;;
59062;SDS011;44851;45.648;9.004;2023-05-06T05:33:28;22.63;;;20.43;;
59062;SDS011;44851;45.648;9.004;2023-05-06T05:35:53;22.80;;;20.50;;
59062;SDS011;44851;45.648;9.004;2023-05-06T05:38:18;23.67;;;21.43;;
59062;SDS011;44851;45.648;9.004;2023-05-06T05:40:44;24.17;;;21.77;;
59062;SDS011;44851;45.648;9.004;2023-05-06T05:43:09;23.20;;;21.00;;
59062;SDS011;44851;45.648;9.004;2023-05-06T05:45:34;24.10;;;21.80;;
59062;SDS011;44851;45.648;9.004;2023-05-06T05:48:00;24.17;;;21.87;;
59062;SDS011;44851;45.648;9.004;2023-05-06T05:50:25;23.50;;;21.23;;
59062;SDS011;44851;45.648;9.004;2023-05-06T05:52:51;23.10;;;20.97;;
59062;SDS011;44851;45.648;9.004;2023-05-06T05:55:16;23.93;;;21.73;;
59062;SDS011;44851;45.648;9.004;2023-05-06T05:57:42;23.80;;;21.60;;
59062;SDS011;44851;45.648;9.004;2023-05-06T06:00:07;24.13;;;21.93;;
59062;SDS011;44851;45.648;9.004;2023-05-06T06:02:33;24.17;;;21.97;;
59062;SDS011;44851;45.648;9.004;2023-05-06T06:04:59;22.53;;;20.43;;
59062;SDS011;44851;45.648;9.004;2023-05-06T06:07:24;22.37;;;20.43;;
59062;SDS011;44851;45.648;9.004;2023-05-06T06:09:50;22.43;;;20.33;;
59062;SDS011;44851;45.648;9.004;2023-05-06T06:12:15;20.63;;;18.73;;
59062;SDS011;44851;45.648;9.004;2023-05-06T06:14:42;22.27;;;20.07;;
59062;SDS011;44851;45.648;9.004;2023-05-06T06:17:11;22.03;;;19.97;;
59062;SDS011;44851;45.648;9.004;2023-05-06T06:19:38;22.33;;;20.13;;
59062;SDS011;44851;45.648;9.004;2023-05-06T06:22:03;18.27;;;16.43;;
59062;SDS011;44851;45.648;9.004;2023-05-06T06:24:29;18.87;;;17.23;;
59062;SDS011;44851;45.648;9.004;2023-05-06T06:26:54;16.87;;;15.27;;
59062;SDS011;44851;45.648;9.004;2023-05-06T06:29:19;15.20;;;13.77;;
59062;SDS011;44851;45.648;9.004;2023-05-06T06:31:44;13.60;;;12.30;;
59062;SDS011;44851;45.648;9.004;2023-05-06T06:34:10;13.73;;;12.50;;
59062;SDS011;44851;45.648;9.004;2023-05-06T06:36:36;6.47;;;5.30;;
59062;SDS011;44851;45.648;9.004;2023-05-06T06:39:04;3.30;;;2.90;;
59062;SDS011;44851;45.648;9.004;2023-05-06T06:41:29;4.10;;;3.00;;
59062;SDS011;44851;45.648;9.004;2023-05-06T06:43:55;4.00;;;3.60;;
59062;SDS011;44851;45.648;9.004;2023-05-06T06:46:20;4.67;;;3.97;;
59062;SDS011;44851;45.648;9.004;2023-05-06T06:48:45;4.03;;;3.73;;
59062;SDS011;44851;45.648;9.004;2023-05-06T06:51:11;4.73;;;4.33;;
59062;SDS011;44851;45.648;9.004;2023-05-06T06:53:36;5.27;;;4.87;;
59062;SDS011;44851;45.648;9.004;2023-05-06T06:56:01;4.93;;;4.43;;
59062;SDS011;44851;45.648;9.004;2023-05-06T06:58:27;4.97;;;4.53;;
59062;SDS011;44851;45.648;9.004;2023-05-06T07:00:52;5.20;;;4.80;;
59062;SDS011;44851;45.648;9.004;2023-05-06T07:03:18;5.37;;;4.87;;
59062;SDS011;44851;45.648;9.004;2023-05-06T07:05:43;6.07;;;5.47;;
59062;SDS011;44851;45.648;9.004;2023-05-06T07:08:09;5.57;;;5.07;;
59062;SDS011;44851;45.648;9.004;2023-05-06T07:10:35;5.07;;;4.40;;
59062;SDS011;44851;45.648;9.004;2023-05-06T07:13:00;5.70;;;4.80;;
59062;SDS011;44851;45.648;9.004;2023-05-06T07:15:26;4.97;;;4.53;;
59062;SDS011;44851;45.648;9.004;2023-05-06T07:17:51;5.53;;;5.03;;
59062;SDS011;44851;45.648;9.004;2023-05-06T07:20:17;4.83;;;4.37;;
59062;SDS011;44851;45.648;9.004;2023-05-06T07:22:42;7.13;;;4.60;;
59062;SDS011;44851;45.648;9.004;2023-05-06T07:25:09;5.00;;;4.60;;
59062;SDS011;44851;45.648;9.004;2023-05-06T07:27:35;5.27;;;4.77;;
59062;SDS011;44851;45.648;9.004;2023-05-06T07:30:00;5.03;;;4.53;;
59062;SDS011;44851;45.648;9.004;2023-05-06T07:32:25;4.90;;;4.20;;
59062;SDS011;44851;45.648;9.004;2023-05-06T07:34:51;4.83;;;4.23;;
59062;SDS011;44851;45.648;9.004;2023-05-06T07:37:16;5.50;;;4.17;;
59062;SDS011;44851;45.648;9.004;2023-05-06T07:39:41;7.20;;;4.20;;
59062;SDS011;44851;45.648;9.004;2023-05-06T07:42:07;5.40;;;4.30;;
59062;SDS011;44851;45.648;9.004;2023-05-06T07:44:36;5.00;;;4.27;;
59062;SDS011;44851;45.648;9.004;2023-05-06T07:47:02;4.53;;;4.13;;
59062;SDS011;44851;45.648;9.004;2023-05-06T07:49:27;4.40;;;4.00;;
59062;SDS011;44851;45.648;9.004;2023-05-06T07:51:54;4.20;;;3.90;;
59062;SDS011;44851;45.648;9.004;2023-05-06T07:54:20;3.73;;;3.43;;
59062;SDS011;44851;45.648;9.004;2023-05-06T07:56:46;4.43;;;3.80;;
59062;SDS011;44851;45.648;9.004;2023-05-06T07:59:11;3.97;;;3.67;;
59062;SDS011;44851;45.648;9.004;2023-05-06T08:01:36;4.67;;;4.10;;
59062;SDS011;44851;45.648;9.004;2023-05-06T08:04:02;3.67;;;3.37;;
59062;SDS011;44851;45.648;9.004;2023-05-06T08:06:27;4.03;;;3.33;;
59062;SDS011;44851;45.648;9.004;2023-05-06T08:08:53;5.27;;;3.50;;
59062;SDS011;44851;45.648;9.004;2023-05-06T08:11:18;6.93;;;3.40;;
59062;SDS011;44851;45.648;9.004;2023-05-06T08:13:43;5.70;;;3.30;;
59062;SDS011;44851;45.648;9.004;2023-05-06T08:16:10;5.37;;;3.60;;
59062;SDS011;44851;45.648;9.004;2023-05-06T08:18:35;4.23;;;3.90;;
59062;SDS011;44851;45.648;9.004;2023-05-06T08:21:00;4.33;;;3.40;;
59062;SDS011;44851;45.648;9.004;2023-05-06T08:23:26;3.20;;;2.87;;
59062;SDS011;44851;45.648;9.004;2023-05-06T08:25:51;3.10;;;2.80;;
59062;SDS011;44851;45.648;9.004;2023-05-06T08:28:17;3.50;;;3.20;;
59062;SDS011;44851;45.648;9.004;2023-05-06T08:30:42;2.87;;;2.60;;
59062;SDS011;44851;45.648;9.004;2023-05-06T08:33:11;3.10;;;2.53;;
59062;SDS011;44851;45.648;9.004;2023-05-06T08:35:36;2.67;;;2.40;;
59062;SDS011;44851;45.648;9.004;2023-05-06T08:38:02;3.33;;;2.10;;
59062;SDS011;44851;45.648;9.004;2023-05-06T08:40:27;3.23;;;2.60;;
59062;SDS011;44851;45.648;9.004;2023-05-06T08:42:56;2.50;;;2.30;;
59062;SDS011;44851;45.648;9.004;2023-05-06T08:45:23;3.17;;;2.53;;
59062;SDS011;44851;45.648;9.004;2023-05-06T08:47:49;3.00;;;2.80;;
59062;SDS011;44851;45.648;9.004;2023-05-06T08:50:16;3.80;;;3.20;;
59062;SDS011;44851;45.648;9.004;2023-05-06T08:52:41;3.50;;;3.03;;
59062;SDS011;44851;45.648;9.004;2023-05-06T08:55:07;3.27;;;2.97;;
59062;SDS011;44851;45.648;9.004;2023-05-06T08:57:33;3.13;;;2.93;;
59062;SDS011;44851;45.648;9.004;2023-05-06T08:59:59;4.23;;;3.83;;
59062;SDS011;44851;45.648;9.004;2023-05-06T09:02:25;4.40;;;3.20;;
59062;SDS011;44851;45.648;9.004;2023-05-06T09:04:51;4.33;;;3.70;;
59062;SDS011;44851;45.648;9.004;2023-05-06T09:07:21;4.40;;;4.00;;
59062;SDS011;44851;45.648;9.004;2023-05-06T09:09:47;3.57;;;3.27;;
59062;SDS011;44851;45.648;9.004;2023-05-06T09:12:13;3.87;;;2.60;;
59062;SDS011;44851;45.648;9.004;2023-05-06T09:14:39;3.40;;;2.37;;
59062;SDS011;44851;45.648;9.004;2023-05-06T09:17:14;3.53;;;2.23;;
59062;SDS011;44851;45.648;9.004;2023-05-06T09:19:52;2.70;;;2.50;;
59062;SDS011;44851;45.648;9.004;2023-05-06T09:22:22;3.60;;;2.50;;
59062;SDS011;44851;45.648;9.004;2023-05-06T09:24:49;3.60;;;2.87;;
59062;SDS011;44851;45.648;9.004;2023-05-06T09:29:59;3.10;;;2.77;;
59062;SDS011;44851;45.648;9.004;2023-05-06T09:32:29;4.60;;;3.80;;
59062;SDS011;44851;45.648;9.004;2023-05-06T09:34:55;4.00;;;3.70;;
59062;SDS011;44851;45.648;9.004;2023-05-06T09:37:21;3.50;;;3.00;;
59062;SDS011;44851;45.648;9.004;2023-05-06T09:39:47;3.33;;;3.00;;
59062;SDS011;44851;45.648;9.004;2023-05-06T09:42:12;3.60;;;3.30;;
59062;SDS011;44851;45.648;9.004;2023-05-06T09:44:38;3.73;;;3.40;;
59062;SDS011;44851;45.648;9.004;2023-05-06T09:47:03;5.03;;;3.83;;
59062;SDS011;44851;45.648;9.004;2023-05-06T09:49:30;4.30;;;3.83;;
59062;SDS011;44851;45.648;9.004;2023-05-06T09:51:55;4.43;;;4.03;;
59062;SDS011;44851;45.648;9.004;2023-05-06T09:54:22;4.00;;;3.60;;
59062;SDS011;44851;45.648;9.004;2023-05-06T09:56:48;3.70;;;3.40;;
59062;SDS011;44851;45.648;9.004;2023-05-06T09:59:14;5.23;;;3.30;;
59062;SDS011;44851;45.648;9.004;2023-05-06T10:01:42;4.80;;;3.77;;
59062;SDS011;44851;45.648;9.004;2023-05-06T10:04:08;5.13;;;3.90;;
59062;SDS011;44851;45.648;9.004;2023-05-06T10:06:38;4.23;;;3.83;;
59062;SDS011;44851;45.648;9.004;2023-05-06T10:09:04;5.07;;;4.53;;
59062;SDS011;44851;45.648;9.004;2023-05-06T10:11:31;7.27;;;4.20;;
59062;SDS011;44851;45.648;9.004;2023-05-06T10:13:57;6.00;;;5.50;;
59062;SDS011;44851;45.648;9.004;2023-05-06T10:16:24;3.93;;;3.40;;
59062;SDS011;44851;45.648;9.004;2023-05-06T10:18:50;5.00;;;4.50;;
59062;SDS011;44851;45.648;9.004;2023-05-06T10:21:20;5.30;;;4.40;;
59062;SDS011;44851;45.648;9.004;2023-05-06T10:23:50;4.97;;;4.57;;
59062;SDS011;44851;45.648;9.004;2023-05-06T10:26:31;5.33;;;4.20;;
59062;SDS011;44851;45.648;9.004;2023-05-06T10:29:01;5.20;;;4.33;;
59062;SDS011;44851;45.648;9.004;2023-05-06T10:31:28;5.40;;;3.67;;
59062;SDS011;44851;45.648;9.004;2023-05-06T10:33:55;4.60;;;3.77;;
59062;SDS011;44851;45.648;9.004;2023-05-06T10:36:25;4.50;;;4.10;;
59062;SDS011;44851;45.648;9.004;2023-05-06T10:38:53;5.30;;;4.80;;
59062;SDS011;44851;45.648;9.004;2023-05-06T10:41:21;4.60;;;4.20;;
59062;SDS011;44851;45.648;9.004;2023-05-06T10:43:48;4.37;;;3.97;;
59062;SDS011;44851;45.648;9.004;2023-05-06T10:46:20;4.40;;;4.03;;
59062;SDS011;44851;45.648;9.004;2023-05-06T10:51:28;6.33;;;5.73;;
59062;SDS011;44851;45.648;9.004;2023-05-06T11:01:36;6.47;;;5.87;;
59062;SDS011;44851;45.648;9.004;2023-05-06T11:04:07;6.13;;;5.40;;
59062;SDS011;44851;45.648;9.004;2023-05-06T11:06:49;4.50;;;4.17;;
59062;SDS011;44851;45.648;9.004;2023-05-06T11:11:50;6.33;;;5.73;;
59062;SDS011;44851;45.648;9.004;2023-05-06T11:14:25;5.23;;;4.77;;
59062;SDS011;44851;45.648;9.004;2023-05-06T11:16:54;5.27;;;4.77;;
59062;SDS011;44851;45.648;9.004;2023-05-06T11:19:25;5.23;;;4.73;;
59062;SDS011;44851;45.648;9.004;2023-05-06T11:21:52;5.40;;;5.00;;
59062;SDS011;44851;45.648;9.004;2023-05-06T11:24:29;5.93;;;5.40;;
59062;SDS011;44851;45.648;9.004;2023-05-06T11:26:57;6.30;;;5.70;;
59062;SDS011;44851;45.648;9.004;2023-05-06T11:29:23;6.70;;;6.10;;
59062;SDS011;44851;45.648;9.004;2023-05-06T11:31:50;7.60;;;6.93;;
59062;SDS011;44851;45.648;9.004;2023-05-06T11:34:22;5.60;;;5.10;;
59062;SDS011;44851;45.648;9.004;2023-05-06T11:37:00;5.27;;;4.77;;
59062;SDS011;44851;45.648;9.004;2023-05-06T11:39:34;5.70;;;5.20;;
59062;SDS011;44851;45.648;9.004;2023-05-06T11:42:03;6.67;;;6.10;;
59062;SDS011;44851;45.648;9.004;2023-05-06T11:44:31;9.30;;;6.00;;
59062;SDS011;44851;45.648;9.004;2023-05-06T11:47:07;6.30;;;5.80;;
59062;SDS011;44851;45.648;9.004;2023-05-06T11:49:37;5.90;;;5.40;;
59062;SDS011;44851;45.648;9.004;2023-05-06T11:52:04;5.73;;;5.10;;
59062;SDS011;44851;45.648;9.004;2023-05-06T11:54:35;5.10;;;4.70;;
59062;SDS011;44851;45.648;9.004;2023-05-06T11:57:03;6.10;;;5.20;;
59062;SDS011;44851;45.648;9.004;2023-05-06T11:59:29;6.47;;;5.87;;
59062;SDS011;44851;45.648;9.004;2023-05-06T12:01:57;6.63;;;6.03;;
59062;SDS011;44851;45.648;9.004;2023-05-06T12:04:27;6.37;;;5.70;;
59062;SDS011;44851;45.648;9.004;2023-05-06T12:07:00;6.80;;;6.20;;
59062;SDS011;44851;45.648;9.004;2023-05-06T12:09:26;5.93;;;5.40;;
59062;SDS011;44851;45.648;9.004;2023-05-06T12:11:52;5.83;;;5.30;;
59062;SDS011;44851;45.648;9.004;2023-05-06T12:14:18;5.43;;;4.90;;
59062;SDS011;44851;45.648;9.004;2023-05-06T12:16:45;6.87;;;5.87;;
59062;SDS011;44851;45.648;9.004;2023-05-06T12:19:10;6.40;;;5.10;;
59062;SDS011;44851;45.648;9.004;2023-05-06T12:21:36;6.30;;;5.70;;
59062;SDS011;44851;45.648;9.004;2023-05-06T12:24:02;5.43;;;5.00;;
59062;SDS011;44851;45.648;9.004;2023-05-06T12:26:28;6.30;;;5.73;;
59062;SDS011;44851;45.648;9.004;2023-05-06T12:29:10;5.60;;;5.20;;
59062;SDS011;44851;45.648;9.004;2023-05-06T12:31:38;5.93;;;5.33;;
59062;SDS011;44851;45.648;9.004;2023-05-06T12:34:03;6.03;;;5.50;;
59062;SDS011;44851;45.648;9.004;2023-05-06T12:36:29;6.03;;;5.53;;
59062;SDS011;44851;45.648;9.004;2023-05-06T12:38:57;5.80;;;4.60;;
59062;SDS011;44851;45.648;9.004;2023-05-06T12:41:24;5.80;;;5.30;;
59062;SDS011;44851;45.648;9.004;2023-05-06T12:44:00;5.17;;;4.77;;
59062;SDS011;44851;45.648;9.004;2023-05-06T12:46:26;5.23;;;4.83;;
59062;SDS011;44851;45.648;9.004;2023-05-06T12:49:09;7.23;;;5.17;;
59062;SDS011;44851;45.648;9.004;2023-05-06T12:51:34;5.30;;;4.80;;
59062;SDS011;44851;45.648;9.004;2023-05-06T12:54:00;5.53;;;5.03;;
59062;SDS011;44851;45.648;9.004;2023-05-06T12:56:25;5.73;;;5.27;;
59062;SDS011;44851;45.648;9.004;2023-05-06T12:58:54;5.17;;;4.77;;
59062;SDS011;44851;45.648;9.004;2023-05-06T13:01:20;5.63;;;5.17;;
59062;SDS011;44851;45.648;9.004;2023-05-06T13:03:46;5.27;;;4.87;;
59062;SDS011;44851;45.648;9.004;2023-05-06T13:06:11;6.10;;;5.50;;
59062;SDS011;44851;45.648;9.004;2023-05-06T13:08:38;4.93;;;4.53;;
59062;SDS011;44851;45.648;9.004;2023-05-06T13:11:04;5.10;;;4.67;;
59062;SDS011;44851;45.648;9.004;2023-05-06T13:13:29;5.40;;;4.90;;
59062;SDS011;44851;45.648;9.004;2023-05-06T13:15:54;6.00;;;5.20;;
59062;SDS011;44851;45.648;9.004;2023-05-06T13:18:20;5.73;;;5.23;;
59062;SDS011;44851;45.648;9.004;2023-05-06T13:20:46;4.90;;;4.50;;
59062;SDS011;44851;45.648;9.004;2023-05-06T13:23:11;5.20;;;4.80;;
59062;SDS011;44851;45.648;9.004;2023-05-06T13:25:36;5.67;;;5.17;;
59062;SDS011;44851;45.648;9.004;2023-05-06T13:28:03;5.43;;;5.03;;
59062;SDS011;44851;45.648;9.004;2023-05-06T13:30:28;5.53;;;5.03;;
59062;SDS011;44851;45.648;9.004;2023-05-06T13:32:54;5.80;;;5.30;;
59062;SDS011;44851;45.648;9.004;2023-05-06T13:35:20;5.83;;;5.20;;
59062;SDS011;44851;45.648;9.004;2023-05-06T13:37:45;5.57;;;5.07;;
59062;SDS011;44851;45.648;9.004;2023-05-06T13:40:10;5.20;;;4.70;;
59062;SDS011;44851;45.648;9.004;2023-05-06T13:42:36;4.57;;;4.23;;
59062;SDS011;44851;45.648;9.004;2023-05-06T13:45:02;4.50;;;4.13;;
59062;SDS011;44851;45.648;9.004;2023-05-06T13:47:28;5.90;;;5.50;;
59062;SDS011;44851;45.648;9.004;2023-05-06T13:49:53;5.50;;;4.73;;
59062;SDS011;44851;45.648;9.004;2023-05-06T13:52:18;5.47;;;4.93;;
59062;SDS011;44851;45.648;9.004;2023-05-06T13:54:44;5.50;;;5.00;;
59062;SDS011;44851;45.648;9.004;2023-05-06T13:57:10;5.63;;;5.13;;
59062;SDS011;44851;45.648;9.004;2023-05-06T13:59:35;5.43;;;4.93;;
59062;SDS011;44851;45.648;9.004;2023-05-06T14:02:00;4.87;;;4.47;;
59062;SDS011;44851;45.648;9.004;2023-05-06T14:04:26;5.40;;;4.37;;
59062;SDS011;44851;45.648;9.004;2023-05-06T14:06:51;5.10;;;4.60;;
59062;SDS011;44851;45.648;9.004;2023-05-06T14:09:17;4.43;;;4.07;;
59062;SDS011;44851;45.648;9.004;2023-05-06T14:11:43;7.07;;;5.13;;
59062;SDS011;44851;45.648;9.004;2023-05-06T14:14:08;5.30;;;4.80;;
59062;SDS011;44851;45.648;9.004;2023-05-06T14:16:33;5.50;;;5.03;;
59062;SDS011;44851;45.648;9.004;2023-05-06T14:18:59;4.77;;;4.37;;
59062;SDS011;44851;45.648;9.004;2023-05-06T14:21:25;4.70;;;4.30;;
59062;SDS011;44851;45.648;9.004;2023-05-06T14:23:50;5.00;;;4.60;;
59062;SDS011;44851;45.648;9.004;2023-05-06T14:26:15;4.87;;;4.53;;
59062;SDS011;44851;45.648;9.004;2023-05-06T14:28:41;5.40;;;4.90;;
59062;SDS011;44851;45.648;9.004;2023-05-06T14:31:06;5.30;;;4.83;;
59062;SDS011;44851;45.648;9.004;2023-05-06T14:33:31;5.40;;;4.90;;
59062;SDS011;44851;45.648;9.004;2023-05-06T14:35:57;5.00;;;4.50;;
59062;SDS011;44851;45.648;9.004;2023-05-06T14:38:22;4.37;;;4.07;;
59062;SDS011;44851;45.648;9.004;2023-05-06T14:40:48;4.50;;;4.20;;
59062;SDS011;44851;45.648;9.004;2023-05-06T14:43:14;15.70;;;12.33;;
59062;SDS011;44851;45.648;9.004;2023-05-06T14:45:40;9.83;;;8.13;;
59062;SDS011;44851;45.648;9.004;2023-05-06T14:48:05;4.50;;;4.10;;
59062;SDS011;44851;45.648;9.004;2023-05-06T14:50:30;4.60;;;4.17;;